Latest Weather Observations for Point Fawcett

IDD60901

Issued at 3:01 pm CST Thursday 18 December 2014 (issued every 10 minutes, with the page automatically refreshed every 10 minutes)

About weather observations | Map of Darwin area stations | Latest observations for Darwin area | Other Formats
Station Details ID: 200731 Name: POINT FAWCETT Lat: -11.76 Lon: 130.03 Height: 6.5 m
Data from the previous 72 hours. | See also: Recent months at Point Fawcett
Date/Time
CST
Tmp

°C
App
Tmp
°C
Dew
Point
°C
Rel
Hum
%
Delta-T

°C
Wind Press
QNH
hPa
Press
MSL
hPa
Rain
since
9 am
mm
Dir
 
Spd
km/h
Gust
km/h
Spd
kts
Gust
kts
18/03:00pm 33.4 38.8 27.2 70 4.5 WNW 13 17 7 9 1007.9 1007.8 -
18/02:30pm 31.9 37.5 26.9 75 3.6 W 11 15 6 8 1008.3 - -
18/02:00pm 31.3 36.6 25.9 73 3.8 W 9 13 5 7 1008.4 - -
18/01:30pm 30.9 36.4 26.2 76 3.4 WNW 9 13 5 7 1008.6 - -
18/01:00pm 31.3 36.0 25.6 71 4.0 WNW 11 15 6 8 1009.1 - -
18/12:30pm 32.4 37.5 26.2 70 4.4 WNW 11 15 6 8 1009.2 - -
18/12:00pm 32.4 37.2 26.2 70 4.4 WNW 13 17 7 9 1009.5 1009.4 -
18/11:30am 32.5 37.7 26.3 70 4.4 NW 11 15 6 8 1009.9 - -
18/11:00am 33.2 38.2 26.5 68 4.8 NW 13 17 7 9 1010.1 - -
18/10:30am 33.2 38.2 26.5 68 4.8 NW 13 17 7 9 1010.0 - -
18/10:00am 32.8 37.3 26.4 69 4.6 NW 15 19 8 10 1009.9 - -
18/09:30am 31.9 36.6 26.7 74 3.7 NW 15 20 8 11 1009.7 - -
18/09:00am 32.4 37.4 26.5 71 4.2 NW 13 17 7 9 1009.5 1009.4 -
18/08:30am 31.6 37.0 26.6 75 3.6 NW 11 15 6 8 1009.3 - -
18/08:00am 30.5 35.5 26.0 77 3.2 NW 11 15 6 8 1009.1 - -
18/07:30am 30.1 34.7 26.0 78 2.9 WNW 13 17 7 9 1008.8 - -
18/07:00am 29.7 34.4 26.1 81 2.6 NW 13 17 7 9 1008.3 - -
18/06:30am 29.6 34.2 26.0 81 2.6 NW 13 15 7 8 1007.7 - -
18/06:00am 29.5 33.7 25.9 81 2.6 NW 15 17 8 9 1007.1 1007.0 -
18/05:30am 29.6 34.7 26.2 82 2.4 NW 11 13 6 7 1006.8 - -
18/05:00am 29.5 35.0 26.1 82 2.4 WNW 9 13 5 7 1006.6 - -
18/04:30am 29.7 34.5 26.3 82 2.4 NW 13 15 7 8 1006.3 - -
18/04:00am 29.7 34.5 26.3 82 2.4 NNW 13 17 7 9 1006.4 - -
18/03:30am 29.8 34.2 26.2 81 2.6 NW 15 20 8 11 1006.1 - -
18/03:00am 29.9 34.7 26.3 81 2.6 NNW 13 15 7 8 1006.2 1006.1 -
18/02:30am 29.9 34.1 25.9 79 2.8 NNW 15 20 8 11 1006.0 - -
18/02:00am 29.8 34.7 26.4 82 2.4 NNW 13 17 7 9 1006.1 - -
18/01:30am 29.8 34.0 26.0 80 2.7 NNW 15 19 8 10 1006.3 - -
18/01:00am 30.0 34.4 26.2 80 2.7 NW 15 19 8 10 1007.0 - -
18/12:30am 30.0 34.0 26.2 80 2.7 NW 17 20 9 11 1007.1 - -
18/12:00am 30.2 34.0 25.9 78 3.1 WNW 17 20 9 11 1007.5 1007.4 -
 
Date/Time
CST
Tmp

°C
App
Tmp
°C
Dew
Point
°C
Rel
Hum
%
Delta-T

°C
Wind Press
QNH
hPa
Press
MSL
hPa
Rain
since
9 am
mm
Dir
 
Spd
km/h
Gust
km/h
Spd
kts
Gust
kts
17/11:30pm 30.2 34.5 26.1 79 2.9 WNW 15 20 8 11 1007.7 - -
17/11:00pm 30.2 34.5 26.1 79 2.9 W 15 19 8 10 1007.9 - -
17/10:30pm 30.4 34.3 26.1 78 3.1 WNW 17 20 9 11 1007.9 - -
17/10:00pm 30.3 34.3 25.6 76 3.3 W 15 19 8 10 1008.4 - -
17/09:30pm 30.4 34.8 26.3 79 2.9 W 15 19 8 10 1008.3 - -
17/09:00pm 30.6 35.0 26.3 78 3.1 W 15 19 8 10 1008.3 1008.2 -
17/08:00pm 30.6 34.3 25.7 75 3.5 W 17 20 9 11 1007.5 - -
17/07:30pm 30.7 34.8 26.4 78 3.1 WNW 17 20 9 11 1006.8 - -
17/07:00pm 30.8 34.9 26.3 77 3.2 WNW 17 20 9 11 1006.4 - -
17/06:30pm 31.2 35.4 26.0 74 3.7 WNW 15 19 8 10 1006.0 - -
17/06:00pm 31.7 35.8 26.3 73 3.9 WNW 17 20 9 11 1005.2 1005.1 -
17/05:30pm 32.4 36.3 26.0 69 4.6 WNW 17 20 9 11 1005.0 - -
17/05:00pm 32.8 36.8 26.8 70 4.3 NW 19 24 10 13 1005.1 - -
17/04:30pm 33.1 37.2 26.9 70 4.5 NW 19 24 10 13 1005.2 - -
17/04:00pm 32.9 37.2 27.2 72 4.1 NW 19 24 10 13 1005.1 - -
17/03:30pm 31.7 35.3 26.5 74 3.7 NW 20 26 11 14 1005.1 - -
17/03:00pm 33.8 38.2 26.8 67 5.1 NW 17 22 9 12 1005.4 1005.3 -
17/02:30pm 33.4 37.7 26.7 68 4.8 NW 17 22 9 12 1005.9 - -
17/02:00pm 33.5 37.7 26.5 67 5.0 NW 17 20 9 11 1006.6 - -
17/01:30pm 33.0 36.5 26.0 66 5.0 NW 19 22 10 12 1007.0 - -
17/01:00pm 33.4 37.4 26.2 66 5.2 NW 17 20 9 11 1007.3 - -
17/12:30pm 33.4 37.9 26.9 69 4.7 NW 17 20 9 11 1007.4 - -
17/12:00pm 33.4 37.9 26.9 69 4.7 NW 17 20 9 11 1007.8 1007.7 -
17/11:30am 33.3 38.1 26.8 68 4.7 NNW 15 20 8 11 1008.3 - -
17/11:00am 33.3 38.5 26.8 68 4.7 NNW 13 17 7 9 1008.7 - -
17/10:30am 32.9 37.4 26.4 68 4.7 NNW 15 20 8 11 1008.7 - -
17/10:00am 32.5 37.3 26.3 70 4.4 NNW 13 17 7 9 1008.6 - -
17/09:30am 31.9 36.7 26.2 72 4.1 NW 13 17 7 9 1008.3 - -
17/09:00am 31.3 36.1 26.3 75 3.6 NW 13 17 7 9 1008.1 1008.0 -
17/08:30am 30.9 35.7 26.2 76 3.4 NW 13 15 7 8 1007.8 - -
17/08:00am 30.4 35.6 26.3 79 2.9 NW 11 17 6 9 1007.7 - -
17/07:30am 29.9 34.7 26.3 81 2.6 NW 13 17 7 9 1007.4 - -
17/07:00am 29.7 34.0 26.1 81 2.6 NW 15 19 8 10 1006.9 - -
17/06:30am 29.6 33.5 26.0 81 2.6 NW 17 20 9 11 1006.7 - -
17/06:00am 29.8 33.7 26.0 80 2.7 NW 17 20 9 11 1006.4 1006.3 -
17/05:30am 29.7 33.3 26.1 81 2.6 NW 19 24 10 13 1006.1 - -
17/05:00am 29.7 33.3 26.1 81 2.6 NW 19 22 10 12 1005.9 - -
17/04:30am 29.8 33.1 26.0 80 2.7 WNW 20 24 11 13 1005.8 - -
17/04:00am 29.9 33.6 26.3 81 2.6 WNW 19 24 10 13 1005.8 - -
17/03:30am 29.9 33.6 26.3 81 2.6 WNW 19 24 10 13 1005.7 - -
17/03:00am 30.0 33.4 26.2 80 2.7 WNW 20 24 11 13 1005.8 1005.7 -
17/02:30am 29.9 33.8 26.1 80 2.7 WNW 17 20 9 11 1005.9 - -
17/02:00am 30.1 34.0 26.0 78 2.9 WNW 17 20 9 11 1006.1 - -
17/01:30am 30.1 33.9 26.7 82 2.4 WNW 20 24 11 13 1006.3 - -
17/01:00am 30.1 33.8 26.3 80 2.7 W 19 24 10 13 1006.8 - -
17/12:30am 30.3 34.1 26.5 80 2.7 W 19 22 10 12 1007.0 - -
17/12:00am 30.1 33.8 26.3 80 2.7 WNW 19 20 10 11 1007.2 1007.1 -
 
Date/Time
CST
Tmp

°C
App
Tmp
°C
Dew
Point
°C
Rel
Hum
%
Delta-T

°C
Wind Press
QNH
hPa
Press
MSL
hPa
Rain
since
9 am
mm
Dir
 
Spd
km/h
Gust
km/h
Spd
kts
Gust
kts
16/11:30pm 30.2 34.1 26.6 81 2.6 W 19 24 10 13 1007.5 - -
16/11:00pm 30.2 33.8 26.1 79 2.9 W 19 24 10 13 1007.5 - -
16/10:30pm 30.3 33.7 26.2 79 2.9 WNW 20 24 11 13 1007.1 - -
16/10:00pm 30.3 33.7 26.2 79 2.9 WNW 20 26 11 14 1007.1 - -
16/09:30pm 30.3 33.7 26.2 79 2.9 WNW 20 24 11 13 1006.9 - -
16/09:00pm 30.3 33.7 26.2 79 2.9 WNW 20 24 11 13 1006.6 1006.5 -
16/08:30pm 30.4 33.4 26.1 78 3.1 WNW 22 26 12 14 1006.4 - -
16/08:00pm 30.6 34.8 26.5 79 2.9 WNW 17 20 9 11 1006.2 - -
16/07:30pm 30.7 35.2 26.4 78 3.1 WNW 15 19 8 10 1006.2 - -
16/07:00pm 30.9 35.7 26.2 76 3.4 NW 13 17 7 9 1005.8 - -
16/06:30pm 31.4 35.4 26.2 74 3.7 WNW 17 20 9 11 1005.4 - -
16/06:00pm 31.7 35.9 26.5 74 3.7 WNW 17 20 9 11 1004.9 1004.8 -
16/05:30pm 32.5 36.8 26.6 71 4.2 WNW 17 22 9 12 1004.6 - -
16/05:00pm 32.7 36.5 26.5 70 4.5 WNW 19 22 10 12 1004.6 - -
16/04:30pm 32.4 36.9 26.9 73 4.0 WNW 17 20 9 11 1005.3 - -
16/04:00pm 32.6 36.7 26.4 70 4.5 W 17 22 9 12 1005.0 - -
16/03:30pm 33.0 36.8 26.5 68 4.7 W 19 22 10 12 1005.2 - -
16/03:00pm 33.2 37.4 26.5 68 4.8 W 17 20 9 11 1006.0 1005.9 -
16/02:30pm 33.5 38.0 27.0 69 4.7 WNW 17 20 9 11 1006.4 - -
16/02:00pm 33.5 38.3 26.8 68 4.8 WNW 15 19 8 10 1006.9 - -
16/01:30pm 33.4 38.5 26.7 68 4.8 NW 13 17 7 9 1007.3 - -
16/01:00pm 33.7 39.1 27.2 69 4.7 WNW 13 17 7 9 1007.6 - -
16/12:30pm 33.4 38.5 26.7 68 4.8 NW 13 13 7 7 1008.1 - -
16/12:00pm 33.2 38.7 26.7 68 4.7 NW 11 15 6 8 1008.6 1008.5 -
16/11:30am 33.1 38.9 26.6 68 4.7 NW 9 13 5 7 1008.7 - -
16/11:00am 33.4 39.4 27.4 71 4.4 NW 11 15 6 8 1009.0 - -
16/10:30am 32.9 38.0 26.7 70 4.5 NW 13 17 7 9 1009.1 - -
16/10:00am 32.7 37.8 26.7 70 4.3 NW 13 17 7 9 1009.1 - -
16/09:30am 32.4 37.5 26.7 72 4.1 NW 13 19 7 10 1009.0 - -
16/09:00am 31.9 36.8 26.4 72 3.9 NW 13 15 7 8 1008.9 1008.8 -
16/08:30am 30.9 35.3 26.2 76 3.4 NW 15 20 8 11 1008.7 - -
16/08:00am 30.6 35.2 26.5 79 2.9 NW 15 19 8 10 1008.5 - -
16/07:30am 30.3 34.6 26.7 81 2.6 NW 17 20 9 11 1008.3 - -
16/07:00am 29.9 33.9 26.7 83 2.3 WNW 19 20 10 11 1008.0 - -
16/06:30am 29.6 33.6 26.2 82 2.4 WNW 17 20 9 11 1007.5 - -
16/06:00am 29.6 33.2 26.2 82 2.4 WNW 19 20 10 11 1007.1 1007.0 -
16/05:30am 29.7 33.8 26.3 82 2.4 WNW 17 20 9 11 1006.7 - -
16/05:00am 29.7 33.8 26.3 82 2.4 WNW 17 20 9 11 1006.3 - -
16/04:30am 29.7 33.5 26.5 83 2.3 WNW 19 24 10 13 1006.1 - -
16/04:00am 29.8 33.2 26.2 81 2.6 WNW 20 24 11 13 1006.1 - -
16/03:30am 29.6 33.0 26.2 82 2.4 WNW 20 24 11 13 1006.0 - -
16/03:00am 29.6 33.1 26.0 81 2.6 WNW 19 24 10 13 1006.1 1006.0 -
16/02:30am 29.7 33.2 26.3 82 2.4 WNW 20 24 11 13 1006.3 - -
16/02:00am 29.8 33.4 26.4 82 2.4 NW 20 26 11 14 1006.6 - -
16/01:30am 29.8 33.5 26.6 83 2.3 NW 20 26 11 14 1007.0 - -
16/01:00am 30.0 34.0 26.8 83 2.3 NW 19 24 10 13 1007.5 - -
16/12:30am 30.1 34.2 26.9 83 2.3 NW 19 22 10 12 1007.9 - -
16/12:00am 30.3 33.9 26.2 79 2.9 WNW 19 24 10 13 1008.0 1007.9 -
 
Date/Time
CST
Tmp

°C
App
Tmp
°C
Dew
Point
°C
Rel
Hum
%
Delta-T

°C
Wind Press
QNH
hPa
Press
MSL
hPa
Rain
since
9 am
mm
Dir
 
Spd
km/h
Gust
km/h
Spd
kts
Gust
kts
15/11:30pm 30.2 34.5 26.6 81 2.6 NW 17 20 9 11 1008.0 - -
15/11:00pm 30.1 34.2 26.3 80 2.7 WNW 17 20 9 11 1007.9 - -
15/10:30pm 30.3 35.0 26.7 81 2.6 NW 15 20 8 11 1007.7 - -
15/10:00pm 30.2 34.7 26.4 80 2.7 WNW 15 19 8 10 1007.7 - -
15/09:30pm 30.2 35.1 26.4 80 2.7 WNW 13 17 7 9 1007.5 - -
15/09:00pm 30.3 34.9 26.5 80 2.7 WNW 15 19 8 10 1007.3 1007.2 -
15/08:30pm 30.3 34.9 26.5 80 2.7 WNW 15 17 8 9 1007.1 - -
15/08:00pm 30.3 35.1 26.2 79 2.9 W 13 17 7 9 1006.9 - -
15/07:30pm 30.3 35.3 26.0 78 3.1 WNW 11 13 6 7 1007.1 - -
15/07:00pm 30.6 35.5 25.9 76 3.3 W 11 15 6 8 1006.3 - -
15/06:30pm 31.0 35.1 25.8 74 3.7 W 15 19 8 10 1006.4 - -
15/06:00pm 31.2 35.2 26.2 75 3.6 W 17 22 9 12 1005.8 1005.7 -
15/05:30pm 31.5 35.8 26.1 73 3.9 W 15 19 8 10 1005.8 - -
15/05:00pm 31.5 35.6 26.3 74 3.7 W 17 22 9 12 1005.7 - -
15/04:30pm 31.4 35.9 26.4 75 3.6 W 15 20 8 11 1006.0 - -
15/04:00pm 31.4 35.8 26.2 74 3.7 W 15 20 8 11 1006.0 - -
15/03:30pm 31.4 36.2 26.2 74 3.7 W 13 19 7 10 1006.0 - -

Latest Capital City Observations: Canberra | Sydney | Melbourne | Brisbane | Adelaide | Perth | Hobart | Darwin

Other Formats:

Comma delimited format used in spreadsheet applications
http://www.bom.gov.au/fwo/IDD60901/IDD60901.94122.axf

JavaScript Object Notation format (JSON) in row-major order
http://www.bom.gov.au/fwo/IDD60901/IDD60901.94122.json